»·PEaware :: N149CD KSBP-KVNY

N149CD :: KSBP-KVNY

FLIGHT INFORMATION

Flight Status: Arrived
Operator: Privately registered:
United States
More flights under this callsign
Pilot: Nathan E. (30132)
Aircraft: CIRRUS SR-22
(SR22)
More flights by this aircraft type
Origin: KSBP San Luis Co Regl
United States
Destination: KVNY Van Nuys
United States
More flights between these airports :: More routes between these airports
Route: RZS V186 FIM
File this flight plan on PilotEdge
Remarks: TEC route SBAP37
Altitude:
(Current/Filed)
7,000ft
Speed:
(Current/Filed)
170kts
Departed: 02-Jan-21 05:09 PM
Arrived: 02-Jan-21 06:08 PM
Distance/Time
Traveled:
123nm/0:59
Distance/Time
To Go:
Arrived

Flight Plot

Page will automatically refresh every two minutes.


Map Options




Map Legend


Flown Route
Filed Route
Departure Airport
Arrival Airport
Navaid (VOR, NDB)
Fix

Horizontal Profiles

Position Reports

Time Latitude Longitude Heading Altitude Ground
Speed
02-Jan-21 16:41 35.238245 -120.639989 308 215ft 0kts
02-Jan-21 16:42 35.238245 -120.639989 308 215ft 0kts
02-Jan-21 16:43 35.238245 -120.639989 308 215ft 0kts
02-Jan-21 16:44 35.238245 -120.639989 308 215ft 0kts
02-Jan-21 16:45 35.238245 -120.639989 308 215ft 0kts
02-Jan-21 16:46 35.238245 -120.639989 308 215ft 0kts
02-Jan-21 16:47 35.238265 -120.640025 301 215ft 0kts
02-Jan-21 16:48 35.238265 -120.640025 301 215ft 0kts
02-Jan-21 16:49 35.238265 -120.640025 301 215ft 0kts
02-Jan-21 16:50 35.238265 -120.640025 301 215ft 0kts
02-Jan-21 16:51 35.238265 -120.640025 301 215ft 0kts
02-Jan-21 16:52 35.238265 -120.640025 301 215ft 0kts
02-Jan-21 16:53 35.238265 -120.640025 301 215ft 0kts
02-Jan-21 16:54 35.238265 -120.640025 301 215ft 0kts
02-Jan-21 16:56 35.238265 -120.640025 301 215ft 0kts
02-Jan-21 16:57 35.238265 -120.640025 301 215ft 0kts
02-Jan-21 16:58 35.238265 -120.640025 301 215ft 0kts
02-Jan-21 16:59 35.238265 -120.640025 301 215ft 0kts
02-Jan-21 17:00 35.236957 -120.638437 126 215ft 14kts
02-Jan-21 17:01 35.234094 -120.633420 124 215ft 19kts
02-Jan-21 17:02 35.233078 -120.632077 299 215ft 0kts
02-Jan-21 17:03 35.233078 -120.632077 299 215ft 0kts
02-Jan-21 17:04 35.233079 -120.632077 299 215ft 0kts
02-Jan-21 17:05 35.233078 -120.632077 299 215ft 0kts
02-Jan-21 17:06 35.233101 -120.632122 301 215ft 2kts
02-Jan-21 17:07 35.233140 -120.632375 232 215ft 0kts
02-Jan-21 17:08 35.232750 -120.632927 292 215ft 5kts
02-Jan-21 17:09 35.242596 -120.650428 301 623ft 115kts
02-Jan-21 17:09 35.256073 -120.678854 297 1877ft 113kts
02-Jan-21 17:11 35.274591 -120.718513 299 3494ft 113kts
02-Jan-21 17:12 35.252110 -120.728228 134 4691ft 141kts
02-Jan-21 17:12 35.228998 -120.699337 132 5619ft 143kts
02-Jan-21 17:13 35.201197 -120.663308 131 6634ft 146kts
02-Jan-21 17:15 35.166223 -120.617691 132 7006ft 168kts
02-Jan-21 17:15 35.139111 -120.582359 132 7003ft 170kts
02-Jan-21 17:16 35.106800 -120.540249 132 7005ft 170kts
02-Jan-21 17:17 35.074323 -120.497965 133 7008ft 169kts
02-Jan-21 17:18 35.041978 -120.455909 133 7011ft 169kts
02-Jan-21 17:19 35.009484 -120.413711 133 7011ft 170kts
02-Jan-21 17:20 34.976934 -120.371492 133 7012ft 171kts
02-Jan-21 17:21 34.944244 -120.329144 134 7008ft 171kts
02-Jan-21 17:22 34.911437 -120.286701 134 7009ft 171kts
02-Jan-21 17:23 34.877728 -120.243146 135 7011ft 180kts
02-Jan-21 17:24 34.843623 -120.199121 135 6998ft 177kts
02-Jan-21 17:25 34.809825 -120.155564 136 6991ft 175kts
02-Jan-21 17:26 34.775038 -120.110800 136 6989ft 185kts
02-Jan-21 17:27 34.739885 -120.065611 136 6980ft 178kts
02-Jan-21 17:28 34.705576 -120.021572 136 6981ft 177kts
02-Jan-21 17:29 34.671535 -119.977925 136 6981ft 177kts
02-Jan-21 17:30 34.637639 -119.934520 136 6979ft 176kts
02-Jan-21 17:31 34.603810 -119.891255 136 6978ft 176kts
02-Jan-21 17:32 34.569948 -119.848007 137 6976ft 175kts
02-Jan-21 17:33 34.536517 -119.805360 137 6975ft 174kts
02-Jan-21 17:34 34.504280 -119.761341 126 6975ft 175kts
02-Jan-21 17:35 34.477343 -119.711587 126 6973ft 175kts
02-Jan-21 17:36 34.450344 -119.661818 126 6973ft 175kts
02-Jan-21 17:37 34.423478 -119.612368 126 6974ft 175kts
02-Jan-21 17:38 34.396678 -119.563107 126 7002ft 175kts
02-Jan-21 17:39 34.369990 -119.513900 128 7014ft 172kts
02-Jan-21 17:40 34.343575 -119.465725 127 7009ft 171kts
02-Jan-21 17:41 34.317707 -119.416669 106 7008ft 177kts
02-Jan-21 17:42 34.321187 -119.356829 82 7012ft 179kts
02-Jan-21 17:43 34.325790 -119.296986 82 7007ft 177kts
02-Jan-21 17:44 34.330367 -119.237151 82 7007ft 177kts
02-Jan-21 17:45 34.334919 -119.176858 83 7008ft 178kts
02-Jan-21 17:46 34.339460 -119.116158 84 7008ft 179kts
02-Jan-21 17:47 34.343957 -119.055550 85 7008ft 179kts
02-Jan-21 17:48 34.348413 -118.994707 85 7008ft 179kts
02-Jan-21 17:49 34.352842 -118.934233 85 7009ft 179kts
02-Jan-21 17:50 34.359294 -118.873274 65 7012ft 181kts
02-Jan-21 17:51 34.377719 -118.819440 65 6997ft 156kts
02-Jan-21 17:52 34.394077 -118.771337 65 7005ft 149kts
02-Jan-21 17:53 34.409999 -118.724393 65 7004ft 147kts
02-Jan-21 17:54 34.425678 -118.678217 66 7003ft 147kts
02-Jan-21 17:55 34.441227 -118.632096 68 6554ft 147kts
02-Jan-21 17:56 34.456324 -118.587330 69 6010ft 140kts
02-Jan-21 17:57 34.471325 -118.542878 70 5995ft 134kts
02-Jan-21 17:58 34.465620 -118.511075 188 5817ft 116kts
02-Jan-21 17:59 34.433253 -118.511201 179 5232ft 117kts
02-Jan-21 18:00 34.404297 -118.508700 177 4583ft 107kts
02-Jan-21 18:01 34.373473 -118.505951 176 4010ft 107kts
02-Jan-21 18:02 34.342184 -118.502949 177 3689ft 111kts
02-Jan-21 18:03 34.311299 -118.499993 176 3021ft 105kts
02-Jan-21 18:04 34.280409 -118.497068 175 2333ft 108kts
02-Jan-21 18:05 34.251440 -118.494328 174 1723ft 101kts
02-Jan-21 18:06 34.226379 -118.491923 175 1061ft 79kts
02-Jan-21 18:07 34.208098 -118.490220 173 804ft 25kts
02-Jan-21 18:08 34.206598 -118.490802 262 804ft 5kts
02-Jan-21 18:09 34.206338 -118.492534 177 804ft 0kts

Navigation Log

Ident Type
Flight plan parsing failed, navigation log unavailable